sensor_id;sensor_type;location;lat;lon;timestamp;pressure;altitude;pressure_sealevel;temperature;humidity
26915;BME280;14480;52.608;13.416;2023-02-28T07:14:13;140021.69;;;-16.33;100.00
26915;BME280;14480;52.608;13.416;2023-02-28T07:19:16;140065.84;;;-16.14;100.00
26915;BME280;14480;52.608;13.416;2023-02-28T07:24:19;140108.78;;;-15.97;100.00
26915;BME280;14480;52.608;13.416;2023-02-28T07:29:24;140125.91;;;-15.89;100.00
26915;BME280;14480;52.608;13.416;2023-02-28T07:34:27;140159.00;;;-15.76;100.00
26915;BME280;14480;52.608;13.416;2023-02-28T07:39:31;140111.22;;;-15.96;100.00
26915;BME280;14480;52.608;13.416;2023-02-28T07:44:36;140144.31;;;-15.82;100.00
26915;BME280;14480;52.608;13.416;2023-02-28T07:49:42;140179.88;;;-15.67;100.00
26915;BME280;14480;52.608;13.416;2023-02-28T07:54:46;140214.16;;;-15.53;100.00
26915;BME280;14480;52.608;13.416;2023-02-28T07:59:51;140257.09;;;-15.35;100.00
26915;BME280;14480;52.608;13.416;2023-02-28T13:14:27;141161.47;;;-11.61;71.57
26915;BME280;14480;52.608;13.416;2023-02-28T13:19:33;141197.19;;;-11.46;71.27
26915;BME280;14480;52.608;13.416;2023-02-28T13:24:44;141211.97;;;-11.40;71.05
26915;BME280;14480;52.608;13.416;2023-02-28T13:29:59;141219.34;;;-11.37;70.27
26915;BME280;14480;52.608;13.416;2023-02-28T13:40:47;141241.53;;;-11.28;69.62
26915;BME280;14480;52.608;13.416;2023-02-28T13:46:06;141294.50;;;-11.06;69.46
26915;BME280;14480;52.608;13.416;2023-02-28T13:51:37;141324.06;;;-10.94;69.27
26915;BME280;14480;52.608;13.416;2023-02-28T13:57:03;141345.03;;;-10.85;69.43
26915;BME280;14480;52.608;13.416;2023-02-28T14:07:40;141269.84;;;-11.16;69.32
26915;BME280;14480;52.608;13.416;2023-02-28T14:12:55;141278.47;;;-11.12;68.67
26915;BME280;14480;52.608;13.416;2023-02-28T14:17:59;141290.81;;;-11.07;68.60
26915;BME280;14480;52.608;13.416;2023-02-28T14:23:06;141271.09;;;-11.15;69.52
26915;BME280;14480;52.608;13.416;2023-02-28T14:28:13;141292.03;;;-11.07;69.64
26915;BME280;14480;52.608;13.416;2023-02-28T14:33:27;141239.06;;;-11.29;67.48
26915;BME280;14480;52.608;13.416;2023-02-28T14:38:36;141251.38;;;-11.24;68.94
26915;BME280;14480;52.608;13.416;2023-02-28T14:43:48;141257.56;;;-11.21;67.79
26915;BME280;14480;52.608;13.416;2023-02-28T14:48:52;141236.63;;;-11.30;67.97
26915;BME280;14480;52.608;13.416;2023-02-28T14:53:57;141246.44;;;-11.26;67.57
26915;BME280;14480;52.608;13.416;2023-02-28T14:59:02;141234.16;;;-11.31;68.81
26915;BME280;14480;52.608;13.416;2023-02-28T15:04:12;141237.84;;;-11.29;69.48
26915;BME280;14480;52.608;13.416;2023-02-28T15:09:23;141241.53;;;-11.28;67.95
26915;BME280;14480;52.608;13.416;2023-02-28T15:14:26;141223.03;;;-11.35;68.36
26915;BME280;14480;52.608;13.416;2023-02-28T15:19:32;141216.91;;;-11.38;68.98
26915;BME280;14480;52.608;13.416;2023-02-28T15:24:40;141205.84;;;-11.42;69.56
26915;BME280;14480;52.608;13.416;2023-02-28T15:29:45;141186.13;;;-11.51;69.93
26915;BME280;14480;52.608;13.416;2023-02-28T15:34:50;141167.63;;;-11.58;71.74
26915;BME280;14480;52.608;13.416;2023-02-28T15:40:13;141160.25;;;-11.61;72.31
26915;BME280;14480;52.608;13.416;2023-02-28T15:45:28;141149.19;;;-11.66;72.86
26915;BME280;14480;52.608;13.416;2023-02-28T15:50:31;141143.03;;;-11.68;72.39
26915;BME280;14480;52.608;13.416;2023-02-28T15:55:38;141111.03;;;-11.82;72.47
26915;BME280;14480;52.608;13.416;2023-02-28T16:00:43;141070.44;;;-11.98;73.21
26915;BME280;14480;52.608;13.416;2023-02-28T16:11:11;141079.06;;;-11.95;72.99
26915;BME280;14480;52.608;13.416;2023-02-28T16:16:15;141048.28;;;-12.08;73.24
26915;BME280;14480;52.608;13.416;2023-02-28T16:21:18;141031.09;;;-12.15;73.22
26915;BME280;14480;52.608;13.416;2023-02-28T16:26:23;140999.06;;;-12.28;72.69
26915;BME280;14480;52.608;13.416;2023-02-28T16:31:32;140994.13;;;-12.30;73.42
26915;BME280;14480;52.608;13.416;2023-02-28T16:36:38;140959.69;;;-12.44;74.78
26915;BME280;14480;52.608;13.416;2023-02-28T16:41:44;140920.34;;;-12.60;75.48
26915;BME280;14480;52.608;13.416;2023-02-28T16:46:48;140889.63;;;-12.73;76.12
26915;BME280;14480;52.608;13.416;2023-02-28T16:51:52;140866.22;;;-12.83;77.49
26915;BME280;14480;52.608;13.416;2023-02-28T16:56:57;140840.41;;;-12.93;78.14
26915;BME280;14480;52.608;13.416;2023-02-28T17:02:00;140802.25;;;-13.09;78.75
26915;BME280;14480;52.608;13.416;2023-02-28T17:07:04;140785.09;;;-13.16;79.59
26915;BME280;14480;52.608;13.416;2023-02-28T17:12:09;140761.75;;;-13.26;80.56
26915;BME280;14480;52.608;13.416;2023-02-28T17:17:14;140738.41;;;-13.36;81.27
26915;BME280;14480;52.608;13.416;2023-02-28T17:22:19;140717.50;;;-13.44;82.28
26915;BME280;14480;52.608;13.416;2023-02-28T17:27:23;140685.53;;;-13.58;83.71
26915;BME280;14480;52.608;13.416;2023-02-28T17:32:29;140653.59;;;-13.71;84.87
26915;BME280;14480;52.608;13.416;2023-02-28T17:38:01;140622.88;;;-13.83;85.34
26915;BME280;14480;52.608;13.416;2023-02-28T17:43:06;140597.09;;;-13.94;86.11
26915;BME280;14480;52.608;13.416;2023-02-28T17:48:09;140577.41;;;-14.02;86.59
26915;BME280;14480;52.608;13.416;2023-02-28T17:53:15;140557.81;;;-14.10;87.56
26915;BME280;14480;52.608;13.416;2023-02-28T17:58:22;140536.91;;;-14.19;88.64
26915;BME280;14480;52.608;13.416;2023-02-28T18:03:25;140518.47;;;-14.27;88.89
26915;BME280;14480;52.608;13.416;2023-02-28T18:08:30;140501.31;;;-14.34;89.21
26915;BME280;14480;52.608;13.416;2023-02-28T18:13:36;140479.19;;;-14.43;89.94
26915;BME280;14480;52.608;13.416;2023-02-28T18:18:40;140460.81;;;-14.51;90.32
26915;BME280;14480;52.608;13.416;2023-02-28T18:23:44;140443.66;;;-14.58;91.24
26915;BME280;14480;52.608;13.416;2023-02-28T18:28:53;140410.47;;;-14.71;92.31
26915;BME280;14480;52.608;13.416;2023-02-28T18:33:59;140381.00;;;-14.84;93.95
26915;BME280;14480;52.608;13.416;2023-02-28T18:39:02;140324.56;;;-15.07;98.51
26915;BME280;14480;52.608;13.416;2023-02-28T18:44:08;140279.19;;;-15.26;100.00
26915;BME280;14480;52.608;13.416;2023-02-28T18:49:21;140226.44;;;-15.48;100.00
26915;BME280;14480;52.608;13.416;2023-02-28T18:54:24;140177.41;;;-15.68;100.00
26915;BME280;14480;52.608;13.416;2023-02-28T18:59:30;140155.34;;;-15.77;100.00
26915;BME280;14480;52.608;13.416;2023-02-28T19:04:33;140125.91;;;-15.89;100.00
26915;BME280;14480;52.608;13.416;2023-02-28T19:09:36;140118.56;;;-15.93;100.00
26915;BME280;14480;52.608;13.416;2023-02-28T19:14:41;140101.38;;;-16.00;100.00
26915;BME280;14480;52.608;13.416;2023-02-28T19:19:48;140100.16;;;-16.00;100.00
26915;BME280;14480;52.608;13.416;2023-02-28T19:24:52;140059.72;;;-16.17;100.00
26915;BME280;14480;52.608;13.416;2023-02-28T19:29:57;140021.69;;;-16.33;100.00
26915;BME280;14480;52.608;13.416;2023-02-28T19:35:00;139987.41;;;-16.47;100.00
26915;BME280;14480;52.608;13.416;2023-02-28T19:40:05;139954.31;;;-16.61;100.00
26915;BME280;14480;52.608;13.416;2023-02-28T19:45:11;139922.53;;;-16.74;100.00
26915;BME280;14480;52.608;13.416;2023-02-28T19:50:16;139938.44;;;-16.67;100.00
26915;BME280;14480;52.608;13.416;2023-02-28T19:55:19;139910.25;;;-16.79;100.00
26915;BME280;14480;52.608;13.416;2023-02-28T20:00:24;139873.50;;;-16.94;100.00
26915;BME280;14480;52.608;13.416;2023-02-28T20:05:27;139871.06;;;-16.95;100.00
26915;BME280;14480;52.608;13.416;2023-02-28T20:10:31;139879.63;;;-16.92;100.00
26915;BME280;14480;52.608;13.416;2023-02-28T20:15:37;139883.28;;;-16.90;100.00
26915;BME280;14480;52.608;13.416;2023-02-28T20:20:40;139868.63;;;-16.96;100.00
26915;BME280;14480;52.608;13.416;2023-02-28T20:25:44;139862.50;;;-16.99;100.00
26915;BME280;14480;52.608;13.416;2023-02-28T20:30:51;139849.00;;;-17.04;100.00
26915;BME280;14480;52.608;13.416;2023-02-28T20:35:58;139834.34;;;-17.11;100.00
26915;BME280;14480;52.608;13.416;2023-02-28T20:41:01;139831.91;;;-17.12;100.00
26915;BME280;14480;52.608;13.416;2023-02-28T20:46:07;139851.47;;;-17.03;100.00
26915;BME280;14480;52.608;13.416;2023-02-28T20:51:10;139830.69;;;-17.12;100.00
26915;BME280;14480;52.608;13.416;2023-02-28T20:56:14;139801.28;;;-17.24;100.00
26915;BME280;14480;52.608;13.416;2023-02-28T21:01:20;139785.34;;;-17.31;100.00
26915;BME280;14480;52.608;13.416;2023-02-28T21:06:28;139721.72;;;-17.57;100.00
26915;BME280;14480;52.608;13.416;2023-02-28T21:11:36;139730.25;;;-17.54;100.00
26915;BME280;14480;52.608;13.416;2023-02-28T21:16:44;139719.25;;;-17.58;100.00
26915;BME280;14480;52.608;13.416;2023-02-28T21:21:48;139714.34;;;-17.60;100.00
26915;BME280;14480;52.608;13.416;2023-02-28T21:26:52;139697.22;;;-17.67;100.00
26915;BME280;14480;52.608;13.416;2023-02-28T21:31:59;139700.88;;;-17.66;100.00
26915;BME280;14480;52.608;13.416;2023-02-28T21:37:04;139686.22;;;-17.72;100.00
26915;BME280;14480;52.608;13.416;2023-02-28T21:42:24;139692.38;;;-17.69;100.00
26915;BME280;14480;52.608;13.416;2023-02-28T21:52:49;139682.56;;;-17.74;100.00
26915;BME280;14480;52.608;13.416;2023-02-28T21:57:52;139674.00;;;-17.77;100.00
26915;BME280;14480;52.608;13.416;2023-02-28T22:02:56;139661.78;;;-17.82;100.00
26915;BME280;14480;52.608;13.416;2023-02-28T22:08:01;139653.19;;;-17.86;100.00
26915;BME280;14480;52.608;13.416;2023-02-28T22:13:05;139648.31;;;-17.88;100.00
26915;BME280;14480;52.608;13.416;2023-02-28T22:18:08;139612.84;;;-18.03;100.00
26915;BME280;14480;52.608;13.416;2023-02-28T22:23:13;139581.03;;;-18.16;100.00
26915;BME280;14480;52.608;13.416;2023-02-28T22:28:22;139596.91;;;-18.09;100.00
